Brentwood, New York
Current Conditions -  °F | °C
As of 12:17 AM on Sunday 21 Dec 2014 (Local Time) from KISP Reporting Station
Overcast Overcast  
Wind Chill:   Ceiling: 1300
Heat Index:   Visibility: 10mi
Dew Point: -4°   Wind: 3mph
Humidity: 72%   Direction: 290°WNW
Pressure: 30.25"   Gusts: NA
Location:  40.78°N, 73.25°W
Report Text: KISP 210517Z AUTO 29003KT 10SM BKN013 OVC028 01/M04 A3025 RMK AO2 T00061039
Loading
Personal Weather Stations






























Interactive Weather Map New forecast layout! Learn more

10-Day Weather Forecast

Advertisements
Track Severe Weather on mobile